createdAt,value
2022-11-20T00:01:22.507Z,17.90
2022-11-20T00:01:29.523Z,15.38
2022-11-20T00:03:51.210Z,16.48
2022-11-20T00:03:58.860Z,13.73
2022-11-20T00:06:19.705Z,15.20
2022-11-20T00:06:27.283Z,14.07
2022-11-20T00:08:47.751Z,15.80
2022-11-20T00:09:00.937Z,14.75
2022-11-20T00:11:17.968Z,19.33
2022-11-20T00:11:29.343Z,16.02
2022-11-20T00:13:46.329Z,17.58
2022-11-20T00:14:00.243Z,14.93
2022-11-20T00:16:16.639Z,19.02
2022-11-20T00:16:29.256Z,14.35
2022-11-20T00:18:44.796Z,17.67
2022-11-20T00:18:56.860Z,14.70
2022-11-20T00:21:14.377Z,18.00
2022-11-20T00:21:28.075Z,15.00
2022-11-20T00:23:42.403Z,17.35
2022-11-20T00:23:56.890Z,15.23
2022-11-20T00:26:20.656Z,19.90
2022-11-20T00:26:26.418Z,15.75
2022-11-20T00:28:52.680Z,17.08
2022-11-20T00:28:56.354Z,14.68
2022-11-20T00:31:20.062Z,17.70
2022-11-20T00:31:24.132Z,13.93
2022-11-20T00:33:47.498Z,16.02
2022-11-20T00:33:51.881Z,12.98
2022-11-20T00:36:17.191Z,16.75
2022-11-20T00:36:24.384Z,14.13
2022-11-20T00:38:45.273Z,16.95
2022-11-20T00:38:56.652Z,17.00
2022-11-20T00:41:14.658Z,17.23
2022-11-20T00:41:24.870Z,13.75
2022-11-20T00:43:41.747Z,21.92
2022-11-20T00:43:56.398Z,14.48
2022-11-20T00:46:11.728Z,17.23
2022-11-20T00:46:26.330Z,14.13
2022-11-20T00:48:38.797Z,17.42
2022-11-20T00:48:54.093Z,12.65
2022-11-20T00:51:05.877Z,18.52
2022-11-20T00:51:24.195Z,12.63
2022-11-20T00:53:33.054Z,18.48
2022-11-20T00:53:51.859Z,13.40
2022-11-20T00:56:05.412Z,17.25
2022-11-20T00:56:20.510Z,14.05
2022-11-20T00:58:37.393Z,20.27
2022-11-20T00:58:49.395Z,12.90
2022-11-20T01:01:13.327Z,18.27
2022-11-20T01:01:25.160Z,14.05
2022-11-20T01:03:42.774Z,15.65
2022-11-20T01:03:54.286Z,13.52
2022-11-20T01:06:20.286Z,16.73
2022-11-20T01:06:27.529Z,15.27
2022-11-20T01:08:49.276Z,21.83
2022-11-20T01:08:58.214Z,13.60
2022-11-20T01:11:19.832Z,18.05
2022-11-20T01:11:29.022Z,12.70
2022-11-20T01:13:48.918Z,19.42
2022-11-20T01:13:57.462Z,13.45
2022-11-20T01:16:21.205Z,23.88
2022-11-20T01:16:27.836Z,12.77
2022-11-20T01:18:51.154Z,18.35
2022-11-20T01:18:57.646Z,13.13
2022-11-20T01:21:21.936Z,19.50
2022-11-20T01:21:29.911Z,13.88
2022-11-20T01:23:50.036Z,18.25
2022-11-20T01:23:57.786Z,14.75
2022-11-20T01:26:25.349Z,15.88
2022-11-20T01:26:28.579Z,13.20
2022-11-20T01:28:52.683Z,18.83
2022-11-20T01:28:56.972Z,13.15
2022-11-20T01:31:23.678Z,15.35
2022-11-20T01:31:27.222Z,15.30
2022-11-20T01:33:53.992Z,16.73
2022-11-20T01:34:01.584Z,12.73
2022-11-20T01:36:22.797Z,22.35
2022-11-20T01:36:31.095Z,14.07
2022-11-20T01:38:53.733Z,18.27
2022-11-20T01:39:07.595Z,14.63
2022-11-20T01:41:40.357Z,16.65
2022-11-20T01:41:54.139Z,13.20
2022-11-20T01:44:07.769Z,18.00
2022-11-20T01:44:41.081Z,14.57
2022-11-20T01:46:39.003Z,19.90
2022-11-20T01:47:09.591Z,14.43
2022-11-20T01:49:17.619Z,18.95
2022-11-20T01:49:49.590Z,14.80
2022-11-20T01:52:02.187Z,19.27
2022-11-20T01:52:23.474Z,14.32
2022-11-20T01:54:37.122Z,17.27
2022-11-20T01:55:01.811Z,14.07
2022-11-20T01:57:07.910Z,15.80
2022-11-20T01:57:32.163Z,13.93
2022-11-20T01:59:37.871Z,18.90
2022-11-20T02:00:10.773Z,14.93
2022-11-20T02:02:04.825Z,16.27
2022-11-20T02:02:43.957Z,14.43
2022-11-20T02:04:31.897Z,18.80
2022-11-20T02:05:36.871Z,13.93
2022-11-20T02:07:01.839Z,18.73
2022-11-20T02:08:06.824Z,15.57
2022-11-20T02:09:29.661Z,18.63
2022-11-20T02:10:35.095Z,14.00
2022-11-20T02:11:58.301Z,19.30
2022-11-20T02:13:21.261Z,16.10
2022-11-20T02:14:26.212Z,18.80
2022-11-20T02:16:55.607Z,14.95
2022-11-20T02:18:18.570Z,18.27
2022-11-20T02:19:29.498Z,16.95
2022-11-20T02:20:48.253Z,16.85
2022-11-20T02:22:14.630Z,18.58
2022-11-20T02:23:40.494Z,14.07
2022-11-20T02:24:44.674Z,17.07
2022-11-20T02:26:12.167Z,17.25
2022-11-20T02:27:16.884Z,20.40
2022-11-20T02:28:39.885Z,15.75
2022-11-20T02:29:56.047Z,17.73
2022-11-20T02:31:07.478Z,13.40
2022-11-20T02:32:32.813Z,19.42
2022-11-20T02:33:35.051Z,15.15
2022-11-20T02:35:08.165Z,18.83
2022-11-20T02:36:02.583Z,14.60
2022-11-20T02:37:39.390Z,18.02
2022-11-20T02:38:30.101Z,14.40
2022-11-20T02:40:07.108Z,17.38
2022-11-20T02:40:57.677Z,14.88
2022-11-20T02:42:34.053Z,16.92
2022-11-20T02:43:25.534Z,15.52
2022-11-20T02:45:01.037Z,17.77
2022-11-20T02:45:53.671Z,15.85
2022-11-20T02:47:28.050Z,18.42
2022-11-20T02:48:21.243Z,13.93
2022-11-20T02:49:55.058Z,19.58
2022-11-20T02:50:48.828Z,13.75
2022-11-20T02:52:22.224Z,20.13
2022-11-20T02:53:16.478Z,15.05
2022-11-20T02:54:49.241Z,17.73
2022-11-20T02:55:44.056Z,15.88
2022-11-20T02:57:16.626Z,18.67
2022-11-20T02:58:11.652Z,15.60
2022-11-20T02:59:43.643Z,18.42
2022-11-20T03:00:39.178Z,13.75
2022-11-20T03:02:10.650Z,21.67
2022-11-20T03:03:06.781Z,15.23
2022-11-20T03:04:37.628Z,17.30
2022-11-20T03:05:34.376Z,13.88
2022-11-20T03:07:05.955Z,21.23
2022-11-20T03:08:02.122Z,13.52
2022-11-20T03:09:32.998Z,18.67
2022-11-20T03:10:29.716Z,13.68
2022-11-20T03:11:59.980Z,22.85
2022-11-20T03:12:57.405Z,12.90
2022-11-20T03:14:27.035Z,20.83
2022-11-20T03:15:25.419Z,14.00
2022-11-20T03:16:54.061Z,22.52
2022-11-20T03:17:56.714Z,13.48
2022-11-20T03:19:21.324Z,22.52
2022-11-20T03:20:24.827Z,13.90
2022-11-20T03:21:48.524Z,18.67
2022-11-20T03:22:54.454Z,14.02
2022-11-20T03:24:15.634Z,22.58
2022-11-20T03:25:22.319Z,14.65
2022-11-20T03:26:42.644Z,19.42
2022-11-20T03:27:49.882Z,12.13
2022-11-20T03:29:09.588Z,20.85
2022-11-20T03:30:17.459Z,14.80
2022-11-20T03:31:41.209Z,19.92
2022-11-20T03:32:45.110Z,13.43
2022-11-20T03:34:10.545Z,21.75
2022-11-20T03:35:12.793Z,13.05
2022-11-20T03:36:41.816Z,21.55
2022-11-20T03:37:40.378Z,15.43
2022-11-20T03:39:09.621Z,18.90
2022-11-20T03:40:08.408Z,14.27
2022-11-20T03:41:39.337Z,20.50
2022-11-20T03:42:47.841Z,14.77
2022-11-20T03:44:10.303Z,22.35
2022-11-20T03:45:19.495Z,14.85
2022-11-20T03:46:37.667Z,21.63
2022-11-20T03:47:47.476Z,13.90
2022-11-20T03:49:04.998Z,21.13
2022-11-20T03:50:16.031Z,14.48
2022-11-20T03:51:34.416Z,21.58
2022-11-20T03:52:43.946Z,14.65
2022-11-20T03:54:03.964Z,19.85
2022-11-20T03:55:11.795Z,15.90
2022-11-20T03:56:33.294Z,21.75
2022-11-20T03:57:39.373Z,14.23
2022-11-20T03:59:00.660Z,20.05
2022-11-20T04:00:07.597Z,14.02
2022-11-20T04:01:31.638Z,21.40
2022-11-20T04:02:35.173Z,14.82
2022-11-20T04:03:58.982Z,22.13
2022-11-20T04:05:02.731Z,13.02
2022-11-20T04:06:28.522Z,17.83
2022-11-20T04:07:30.283Z,13.77
2022-11-20T04:08:57.118Z,22.25
2022-11-20T04:09:59.381Z,16.83
2022-11-20T04:11:35.612Z,18.02
2022-11-20T04:12:26.912Z,13.05
2022-11-20T04:14:05.726Z,19.55
2022-11-20T04:14:54.458Z,16.20
2022-11-20T04:16:35.536Z,19.30
2022-11-20T04:17:21.988Z,14.50
2022-11-20T04:19:05.304Z,19.92
2022-11-20T04:19:49.590Z,16.23
2022-11-20T04:21:32.376Z,19.45
2022-11-20T04:22:17.144Z,14.00
2022-11-20T04:23:59.529Z,20.20
2022-11-20T04:24:44.690Z,13.60
2022-11-20T04:26:28.828Z,20.55
2022-11-20T04:27:12.280Z,17.38
2022-11-20T04:28:56.576Z,21.35
2022-11-20T04:29:39.850Z,15.88
2022-11-20T04:31:26.708Z,19.05
2022-11-20T04:32:07.500Z,14.10
2022-11-20T04:33:53.813Z,20.08
2022-11-20T04:34:35.091Z,15.45
2022-11-20T04:36:26.669Z,21.33
2022-11-20T04:37:02.928Z,13.20
2022-11-20T04:38:56.963Z,21.30
2022-11-20T04:39:30.480Z,13.40
2022-11-20T04:41:30.341Z,19.13
2022-11-20T04:42:16.498Z,14.25
2022-11-20T04:44:03.996Z,19.25
2022-11-20T04:44:44.088Z,15.15
2022-11-20T04:46:37.060Z,18.17
2022-11-20T04:47:11.628Z,14.75
2022-11-20T04:49:04.677Z,18.13
2022-11-20T04:49:39.630Z,15.65
2022-11-20T04:51:32.142Z,19.05
2022-11-20T04:52:07.372Z,16.75
2022-11-20T04:53:59.314Z,19.67
2022-11-20T04:54:34.914Z,14.13
2022-11-20T04:56:26.391Z,17.80
2022-11-20T04:57:06.306Z,14.10
2022-11-20T04:58:53.472Z,18.40
2022-11-20T04:59:36.081Z,15.02
2022-11-20T05:01:25.232Z,21.55
2022-11-20T05:02:03.984Z,15.73
2022-11-20T05:03:52.625Z,18.83
2022-11-20T05:04:31.603Z,14.63
2022-11-20T05:06:22.976Z,18.55
2022-11-20T05:06:59.213Z,14.38
2022-11-20T05:08:50.300Z,19.27
2022-11-20T05:09:27.030Z,12.63
2022-11-20T05:11:20.681Z,20.05
2022-11-20T05:11:54.582Z,14.75
2022-11-20T05:13:48.612Z,25.17
2022-11-20T05:14:22.132Z,14.38
2022-11-20T05:16:21.328Z,16.17
2022-11-20T05:16:49.759Z,18.90
2022-11-20T05:18:49.312Z,20.60
2022-11-20T05:19:17.301Z,15.05
2022-11-20T05:21:16.995Z,19.77
2022-11-20T05:21:44.861Z,14.05
2022-11-20T05:23:45.372Z,18.95
2022-11-20T05:24:12.446Z,14.98
2022-11-20T05:26:19.616Z,22.85
2022-11-20T05:26:40.155Z,13.57
2022-11-20T05:28:47.821Z,17.67
2022-11-20T05:29:07.714Z,14.52
2022-11-20T05:31:27.173Z,21.45
2022-11-20T05:31:35.280Z,15.20
2022-11-20T05:33:55.775Z,23.05
2022-11-20T05:34:02.824Z,14.55
2022-11-20T05:36:22.769Z,20.05
2022-11-20T05:36:31.701Z,13.68
2022-11-20T05:38:51.052Z,22.38
2022-11-20T05:39:01.698Z,13.93
2022-11-20T05:41:20.508Z,18.52
2022-11-20T05:41:30.231Z,16.38
2022-11-20T05:43:48.922Z,22.75
2022-11-20T05:43:58.902Z,15.45
2022-11-20T05:46:18.956Z,19.38
2022-11-20T05:46:29.050Z,17.05
2022-11-20T05:48:48.230Z,19.08
2022-11-20T05:48:57.744Z,14.85
2022-11-20T05:51:18.301Z,19.15
2022-11-20T05:51:27.550Z,14.68
2022-11-20T05:53:48.535Z,18.58
2022-11-20T05:53:57.013Z,13.82
2022-11-20T05:56:18.337Z,21.63
2022-11-20T05:56:24.619Z,14.13
2022-11-20T05:58:46.414Z,19.02
2022-11-20T05:58:52.215Z,17.38
2022-11-20T06:01:22.435Z,15.90
2022-11-20T06:01:24.979Z,17.88
2022-11-20T06:03:51.549Z,19.15
2022-11-20T06:03:53.420Z,19.40
2022-11-20T06:06:20.439Z,15.55
2022-11-20T06:06:21.032Z,18.52
2022-11-20T06:08:48.751Z,17.73
2022-11-20T06:08:48.813Z,18.75
2022-11-20T06:11:16.616Z,19.60
2022-11-20T06:11:17.474Z,14.90
2022-11-20T06:13:44.276Z,20.17
2022-11-20T06:13:45.605Z,15.85
2022-11-20T06:16:14.109Z,20.17
2022-11-20T06:16:16.112Z,16.33
2022-11-20T06:18:41.182Z,20.58
2022-11-20T06:18:43.742Z,16.10
2022-11-20T06:21:14.158Z,16.02
2022-11-20T06:21:17.575Z,20.35
2022-11-20T06:23:42.182Z,21.63
2022-11-20T06:23:46.260Z,18.80
2022-11-20T06:26:12.175Z,17.02
2022-11-20T06:26:21.904Z,20.40
2022-11-20T06:28:39.898Z,16.08
2022-11-20T06:31:08.575Z,17.88
2022-11-20T06:33:36.247Z,17.77
2022-11-20T06:36:10.184Z,16.98
2022-11-20T06:38:39.021Z,16.40
2022-11-20T06:41:13.753Z,13.88
2022-11-20T06:43:41.626Z,14.15
2022-11-20T06:46:11.471Z,14.63
2022-11-20T06:48:39.111Z,14.93
2022-11-20T06:51:07.973Z,13.85
2022-11-20T06:53:36.088Z,15.18
2022-11-20T06:56:04.354Z,15.40
2022-11-20T06:58:33.353Z,15.25
2022-11-20T07:01:02.328Z,16.10
2022-11-20T07:03:30.091Z,16.42
2022-11-20T07:05:58.377Z,15.77
2022-11-20T07:08:26.701Z,19.38
2022-11-20T07:10:57.804Z,14.38
2022-11-20T07:13:25.401Z,16.15
2022-11-20T07:15:53.013Z,15.05
2022-11-20T07:18:20.633Z,17.20
2022-11-20T07:20:49.315Z,17.05
2022-11-20T07:23:16.905Z,15.50
2022-11-20T07:25:44.468Z,16.80
2022-11-20T07:28:12.084Z,14.80
2022-11-20T07:30:39.612Z,14.13
2022-11-20T07:33:07.220Z,15.15
2022-11-20T07:35:34.823Z,18.13
2022-11-20T07:38:02.364Z,15.30
2022-11-20T07:40:29.963Z,15.90
2022-11-20T07:42:57.530Z,15.73
2022-11-20T07:45:25.862Z,15.48
2022-11-20T07:47:53.515Z,15.75
2022-11-20T07:50:21.369Z,16.10
2022-11-20T07:52:49.100Z,14.07
2022-11-20T07:55:16.856Z,17.25
2022-11-20T07:57:44.473Z,18.42
2022-11-20T08:00:13.244Z,16.88
2022-11-20T08:02:41.755Z,17.20
2022-11-20T08:05:10.785Z,17.38
2022-11-20T08:07:43.027Z,18.77
2022-11-20T08:10:13.388Z,18.58
2022-11-20T08:13:11.804Z,20.27
2022-11-20T08:15:40.836Z,18.73
2022-11-20T08:18:30.562Z,23.35
2022-11-20T08:21:02.430Z,20.95
2022-11-20T08:23:30.010Z,18.60
2022-11-20T08:25:57.577Z,17.83
2022-11-20T08:28:25.180Z,17.95
2022-11-20T08:30:52.755Z,19.67
2022-11-20T08:33:20.362Z,17.58
2022-11-20T08:35:47.961Z,19.45
2022-11-20T08:38:15.559Z,16.30
2022-11-20T08:41:03.105Z,17.27
2022-11-20T08:43:30.826Z,18.27
2022-11-20T08:45:58.833Z,19.13
2022-11-20T08:48:26.385Z,17.85
2022-11-20T08:50:53.961Z,18.13
2022-11-20T08:53:21.522Z,18.38
2022-11-20T08:55:49.135Z,20.30
2022-11-20T08:58:16.675Z,16.23
2022-11-20T09:00:44.305Z,17.42
2022-11-20T09:03:11.938Z,17.52
2022-11-20T09:05:39.538Z,17.40
2022-11-20T09:08:07.435Z,18.15
2022-11-20T09:10:35.095Z,19.05
2022-11-20T09:13:02.748Z,18.55
2022-11-20T09:15:30.330Z,17.80
2022-11-20T09:17:59.959Z,16.73
2022-11-20T09:20:29.595Z,18.38
2022-11-20T09:22:58.399Z,20.35
2022-11-20T09:25:26.476Z,21.60
2022-11-20T09:28:00.817Z,23.15
2022-11-20T09:30:29.042Z,18.08
2022-11-20T09:32:57.263Z,19.10
2022-11-20T09:35:24.830Z,17.98
2022-11-20T09:37:52.491Z,16.83
2022-11-20T09:40:24.391Z,17.00
2022-11-20T09:43:09.865Z,18.58
2022-11-20T09:45:40.474Z,27.45
2022-11-20T09:48:17.786Z,20.67
2022-11-20T09:50:53.297Z,19.55
2022-11-20T09:53:51.170Z,19.30
2022-11-20T09:56:22.449Z,19.23
2022-11-20T09:58:56.756Z,24.25
2022-11-20T10:01:29.308Z,18.52
2022-11-20T10:04:11.151Z,17.75
2022-11-20T10:07:30.383Z,19.92
2022-11-20T10:09:56.296Z,20.85
2022-11-20T10:12:58.181Z,19.48
2022-11-20T10:15:35.514Z,19.10
2022-11-20T10:18:09.060Z,17.83
2022-11-20T10:20:49.044Z,20.30
2022-11-20T10:23:26.263Z,18.55
2022-11-20T10:26:15.492Z,18.55
2022-11-20T10:28:58.729Z,17.85
2022-11-20T10:31:39.347Z,18.95
2022-11-20T10:34:22.956Z,18.23
2022-11-20T10:37:04.614Z,26.20
2022-11-20T10:39:42.281Z,23.98
2022-11-20T10:42:16.806Z,21.42
2022-11-20T10:45:06.665Z,19.55
2022-11-20T10:47:34.771Z,23.75
2022-11-20T10:50:10.847Z,22.23
2022-11-20T10:53:03.286Z,21.45
2022-11-20T10:55:45.882Z,21.33
2022-11-20T10:58:58.917Z,22.55
2022-11-20T11:01:28.078Z,23.88
2022-11-20T11:03:57.018Z,20.95
2022-11-20T11:06:41.487Z,21.52
2022-11-20T11:09:18.572Z,24.65
2022-11-20T11:11:46.387Z,25.13
2022-11-20T11:14:15.716Z,29.88
2022-11-20T11:16:57.912Z,27.35
2022-11-20T11:19:26.136Z,28.58
2022-11-20T11:21:57.493Z,25.83
2022-11-20T11:24:41.499Z,29.17
2022-11-20T11:27:17.711Z,26.13
2022-11-20T11:29:46.528Z,27.13
2022-11-20T11:32:22.663Z,25.20
2022-11-20T11:35:23.826Z,26.65
2022-11-20T11:37:52.648Z,26.65
2022-11-20T11:40:24.975Z,27.67
2022-11-20T11:42:58.046Z,34.75
2022-11-20T11:45:26.309Z,34.35
2022-11-20T11:47:58.037Z,32.38
2022-11-20T11:50:27.179Z,30.15
2022-11-20T11:53:18.610Z,28.85
2022-11-20T11:55:59.808Z,27.73
2022-11-20T11:58:42.859Z,31.27
2022-11-20T12:01:19.270Z,25.08
2022-11-20T12:06:19.413Z,27.15
2022-11-20T12:08:54.481Z,27.35
2022-11-20T12:11:35.168Z,27.90
2022-11-20T12:14:16.053Z,24.35
2022-11-20T12:16:43.730Z,30.70
2022-11-20T12:19:15.689Z,30.42
2022-11-20T12:22:08.975Z,30.17
2022-11-20T12:24:44.874Z,28.17
2022-11-20T12:27:18.112Z,33.67
2022-11-20T12:30:05.769Z,29.50
2022-11-20T12:32:46.171Z,29.20
2022-11-20T12:35:39.046Z,29.85
2022-11-20T12:38:28.616Z,28.70
2022-11-20T12:42:11.023Z,29.92
2022-11-20T12:45:05.810Z,29.25
2022-11-20T12:47:51.865Z,30.88
2022-11-20T12:50:25.245Z,30.00
2022-11-20T12:53:08.803Z,29.95
2022-11-20T12:55:49.481Z,29.08
2022-11-20T12:58:46.671Z,27.95
2022-11-20T13:01:48.817Z,34.72
2022-11-20T13:04:40.472Z,32.10
2022-11-20T13:07:11.347Z,37.55
2022-11-20T13:09:46.394Z,38.55
2022-11-20T13:12:37.375Z,35.60
2022-11-20T13:15:28.342Z,35.65
2022-11-20T13:18:00.476Z,31.50
2022-11-20T13:20:28.772Z,33.83
2022-11-20T13:22:58.227Z,39.15
2022-11-20T13:25:37.190Z,38.33
2022-11-20T13:28:10.828Z,31.88
2022-11-20T13:30:49.987Z,41.75
2022-11-20T13:33:39.805Z,39.67
2022-11-20T13:36:20.726Z,36.47
2022-11-20T13:38:53.500Z,30.50
2022-11-20T13:41:35.075Z,40.67
2022-11-20T13:44:38.759Z,33.53
2022-11-20T13:47:21.350Z,37.35
2022-11-20T13:49:49.371Z,42.53
2022-11-20T13:52:35.912Z,35.53
2022-11-20T13:55:12.382Z,35.45
2022-11-20T14:00:22.636Z,40.92
2022-11-20T14:03:17.630Z,38.40
2022-11-20T14:06:03.728Z,35.70
2022-11-20T14:08:49.506Z,36.38
2022-11-20T14:11:22.578Z,41.30
2022-11-20T14:14:05.038Z,36.28
2022-11-20T14:16:37.467Z,36.40
2022-11-20T14:19:25.442Z,35.40
2022-11-20T14:22:07.863Z,36.10
2022-11-20T14:24:35.528Z,35.88
2022-11-20T14:27:03.672Z,41.97
2022-11-20T14:29:36.128Z,39.00
2022-11-20T14:32:05.051Z,41.95
2022-11-20T14:34:36.758Z,41.10
2022-11-20T14:37:11.402Z,39.15
2022-11-20T14:39:51.023Z,45.83
2022-11-20T14:42:21.379Z,48.90
2022-11-20T14:44:50.584Z,40.67
2022-11-20T14:47:23.546Z,42.63
2022-11-20T14:49:52.903Z,40.83
2022-11-20T14:52:22.827Z,41.83
2022-11-20T14:54:55.577Z,47.17
2022-11-20T14:57:24.952Z,42.75
2022-11-20T14:59:52.800Z,42.65
2022-11-20T15:02:20.368Z,42.60
2022-11-20T15:04:57.634Z,38.45
2022-11-20T15:07:35.099Z,41.22
2022-11-20T15:10:12.267Z,45.13
2022-11-20T15:12:50.845Z,39.28
2022-11-20T15:15:37.588Z,38.97
2022-11-20T15:18:05.650Z,36.28
2022-11-20T15:20:34.589Z,39.92
2022-11-20T15:23:02.191Z,35.80
2022-11-20T15:25:29.871Z,36.25
2022-11-20T15:27:58.326Z,37.40
2022-11-20T15:30:26.351Z,41.58
2022-11-20T15:32:53.919Z,39.38
2022-11-20T15:35:21.508Z,40.78
2022-11-20T15:37:49.686Z,38.08
2022-11-20T15:40:17.343Z,35.53
2022-11-20T15:43:05.855Z,32.25
2022-11-20T15:45:43.168Z,33.33
2022-11-20T15:48:13.839Z,33.08
2022-11-20T15:51:07.771Z,37.53
2022-11-20T15:53:36.744Z,34.08
2022-11-20T15:56:05.267Z,35.33
2022-11-20T15:58:33.028Z,36.65
2022-11-20T16:01:00.688Z,32.97
2022-11-20T16:03:28.436Z,33.78
2022-11-20T16:05:56.012Z,33.17
2022-11-20T16:08:23.647Z,30.83
2022-11-20T16:10:51.195Z,31.33
2022-11-20T16:13:37.877Z,29.15
2022-11-20T16:16:23.968Z,32.65
2022-11-20T16:21:19.106Z,33.47
2022-11-20T16:23:46.737Z,35.78
2022-11-20T16:26:19.811Z,33.28
2022-11-20T16:28:47.484Z,30.42
2022-11-20T16:31:17.439Z,27.55
2022-11-20T16:33:51.933Z,33.88
2022-11-20T16:36:20.644Z,27.20
2022-11-20T16:38:52.455Z,28.75
2022-11-20T16:41:20.111Z,28.83
2022-11-20T16:43:50.083Z,27.95
2022-11-20T16:46:19.045Z,28.17
2022-11-20T16:48:53.351Z,26.77
2022-11-20T16:51:21.088Z,26.30
2022-11-20T16:53:50.579Z,26.02
2022-11-20T16:56:20.136Z,27.60
2022-11-20T16:58:49.168Z,27.23
2022-11-20T17:01:20.853Z,28.05
2022-11-20T17:03:55.188Z,27.45
2022-11-20T17:06:25.435Z,27.10
2022-11-20T17:08:55.196Z,25.05
2022-11-20T17:11:23.409Z,26.88
2022-11-20T17:13:51.319Z,25.00
2022-11-20T17:16:23.324Z,24.38
2022-11-20T17:18:51.206Z,21.45
2022-11-20T17:21:20.675Z,24.25
2022-11-20T17:23:48.525Z,24.27
2022-11-20T17:26:19.003Z,23.30
2022-11-20T17:28:57.201Z,20.98
2022-11-20T17:31:25.161Z,20.00
2022-11-20T17:33:52.836Z,21.23
2022-11-20T17:36:20.896Z,19.55
2022-11-20T17:38:49.573Z,20.25
2022-11-20T17:41:19.628Z,20.25
2022-11-20T17:43:47.414Z,19.17
2022-11-20T17:46:20.861Z,19.67
2022-11-20T17:48:49.209Z,15.60
2022-11-20T17:51:22.657Z,15.27
2022-11-20T17:53:52.572Z,17.38
2022-11-20T17:56:39.116Z,17.13
2022-11-20T17:59:08.750Z,17.70
2022-11-20T18:01:36.537Z,17.77
2022-11-20T18:04:04.835Z,15.75
2022-11-20T18:06:32.895Z,17.33
2022-11-20T18:09:02.311Z,15.82
2022-11-20T18:11:35.741Z,19.98
2022-11-20T18:14:24.563Z,15.50
2022-11-20T18:16:54.821Z,19.42
2022-11-20T18:19:29.886Z,18.55
2022-11-20T18:22:01.795Z,18.13
2022-11-20T18:24:31.723Z,25.55
2022-11-20T18:26:59.733Z,23.75
2022-11-20T18:29:28.040Z,16.45
2022-11-20T18:31:55.706Z,17.42
2022-11-20T18:34:24.031Z,16.67
2022-11-20T18:36:51.944Z,15.57
2022-11-20T18:39:19.774Z,14.02
2022-11-20T18:42:05.897Z,14.50
2022-11-20T18:47:22.657Z,17.52
2022-11-20T18:49:52.794Z,15.38
2022-11-20T18:52:25.717Z,17.15
2022-11-20T18:54:54.015Z,19.15
2022-11-20T18:57:23.634Z,18.40
2022-11-20T18:59:51.771Z,15.65
2022-11-20T19:02:20.530Z,17.33
2022-11-20T19:04:48.526Z,19.30
2022-11-20T19:07:16.343Z,20.25
2022-11-20T19:09:45.542Z,20.00
2022-11-20T19:12:13.887Z,22.52
2022-11-20T19:14:41.526Z,21.77
2022-11-20T19:17:11.120Z,20.42
2022-11-20T19:19:39.130Z,19.85
2022-11-20T19:22:08.109Z,18.35
2022-11-20T19:24:36.019Z,18.20
2022-11-20T19:27:03.685Z,19.30
2022-11-20T19:29:31.261Z,20.40
2022-11-20T19:31:59.121Z,21.50
2022-11-20T19:34:26.747Z,22.55
2022-11-20T19:36:54.378Z,19.80
2022-11-20T19:39:23.181Z,20.77
2022-11-20T19:41:51.239Z,19.35
2022-11-20T19:44:19.385Z,20.30
2022-11-20T19:46:47.038Z,21.20
2022-11-20T19:49:15.358Z,22.33
2022-11-20T19:51:48.291Z,19.65
2022-11-20T19:54:16.752Z,17.40
2022-11-20T19:56:45.568Z,21.60
2022-11-20T19:59:13.950Z,20.63
2022-11-20T20:01:42.214Z,19.27
2022-11-20T20:04:10.046Z,24.83
2022-11-20T20:06:39.053Z,18.15
2022-11-20T20:09:09.802Z,20.90
2022-11-20T20:11:38.006Z,19.58
2022-11-20T20:14:14.523Z,19.25
2022-11-20T20:16:43.071Z,19.75
2022-11-20T20:19:15.362Z,19.15
2022-11-20T20:21:43.924Z,19.42
2022-11-20T20:24:12.230Z,19.88
2022-11-20T20:26:39.929Z,20.02
2022-11-20T20:29:07.557Z,19.75
2022-11-20T20:31:35.472Z,17.77
2022-11-20T20:34:05.275Z,18.70
2022-11-20T20:36:33.084Z,19.25
2022-11-20T20:39:02.617Z,19.65
2022-11-20T20:41:30.472Z,19.73
2022-11-20T20:44:16.565Z,22.33
2022-11-20T20:49:11.747Z,19.77
2022-11-20T20:51:39.552Z,21.13
2022-11-20T20:54:07.216Z,22.15
2022-11-20T20:56:34.837Z,22.50
2022-11-20T20:59:03.273Z,21.30
2022-11-20T21:01:31.065Z,21.77
2022-11-20T21:03:59.312Z,21.40
2022-11-20T21:06:27.045Z,23.92
2022-11-20T21:08:57.278Z,22.40
2022-11-20T21:11:25.256Z,22.35
2022-11-20T21:13:52.853Z,22.02
2022-11-20T21:16:22.583Z,23.30
2022-11-20T21:18:50.247Z,24.95
2022-11-20T21:21:36.787Z,22.20
2022-11-20T21:24:04.568Z,25.17
2022-11-20T21:26:32.230Z,24.00
2022-11-20T21:28:59.831Z,27.55
2022-11-20T21:31:28.439Z,23.60
2022-11-20T21:33:56.837Z,24.02
2022-11-20T21:36:31.849Z,25.00
2022-11-20T21:39:00.096Z,24.48
2022-11-20T21:41:30.161Z,26.48
2022-11-20T21:46:46.887Z,25.02
2022-11-20T21:49:15.327Z,27.83
2022-11-20T21:51:43.032Z,26.38
2022-11-20T21:54:11.626Z,24.60
2022-11-20T21:56:39.386Z,23.13
2022-11-20T21:59:06.950Z,24.15
2022-11-20T22:01:34.824Z,25.25
2022-11-20T22:04:03.354Z,23.02
2022-11-20T22:06:32.821Z,25.77
2022-11-20T22:09:01.057Z,28.95
2022-11-20T22:11:28.819Z,23.98
2022-11-20T22:14:29.027Z,29.33
2022-11-20T22:16:56.724Z,28.02
2022-11-20T22:19:24.693Z,24.10
2022-11-20T22:21:52.594Z,24.23
2022-11-20T22:24:21.946Z,25.52
2022-11-20T22:26:49.769Z,24.60
2022-11-20T22:29:21.377Z,25.23
2022-11-20T22:31:51.222Z,23.98
2022-11-20T22:34:18.748Z,29.23
2022-11-20T22:36:46.402Z,24.02
2022-11-20T22:39:14.041Z,24.83
2022-11-20T22:41:41.666Z,25.67
2022-11-20T22:44:12.583Z,25.15
2022-11-20T22:46:40.160Z,26.50
2022-11-20T22:49:08.833Z,26.58
2022-11-20T22:51:39.070Z,26.00
2022-11-20T22:54:07.061Z,26.10
2022-11-20T22:56:35.135Z,25.92
2022-11-20T22:59:02.711Z,25.30
2022-11-20T23:01:32.388Z,24.08
2022-11-20T23:04:01.723Z,24.25
2022-11-20T23:06:29.771Z,28.52
2022-11-20T23:08:57.508Z,23.77
2022-11-20T23:11:29.559Z,25.75
2022-11-20T23:14:02.020Z,24.17
2022-11-20T23:16:31.059Z,27.45
2022-11-20T23:19:14.118Z,28.35
2022-11-20T23:21:42.405Z,26.38
2022-11-20T23:24:10.621Z,26.13
2022-11-20T23:26:40.104Z,27.08
2022-11-20T23:29:08.285Z,28.48
2022-11-20T23:31:36.453Z,26.65
2022-11-20T23:34:04.483Z,27.88
2022-11-20T23:36:32.106Z,26.58
2022-11-20T23:38:59.793Z,26.05
2022-11-20T23:41:27.392Z,27.42
2022-11-20T23:43:55.142Z,27.35
2022-11-20T23:46:22.772Z,25.83
2022-11-20T23:48:50.459Z,26.23
2022-11-20T23:51:18.375Z,26.65
2022-11-20T23:53:45.987Z,28.38
2022-11-20T23:56:16.360Z,27.25
2022-11-20T23:58:44.312Z,25.77
